createdAt,value
2022-09-18T00:01:31.695Z,10.61
2022-09-18T00:04:01.394Z,10.67
2022-09-18T00:06:33.604Z,10.64
2022-09-18T00:09:02.150Z,10.61
2022-09-18T00:11:33.557Z,10.63
2022-09-18T00:14:00.301Z,10.71
2022-09-18T00:16:27.110Z,10.70
2022-09-18T00:18:54.026Z,10.53
2022-09-18T00:21:25.557Z,10.28
2022-09-18T00:23:55.531Z,10.60
2022-09-18T00:26:22.864Z,10.59
2022-09-18T00:28:49.525Z,10.25
2022-09-18T00:31:25.664Z,10.40
2022-09-18T00:33:53.186Z,10.76
2022-09-18T00:36:20.439Z,10.78
2022-09-18T00:38:47.967Z,10.76
2022-09-18T00:41:23.976Z,10.84
2022-09-18T00:44:15.218Z,10.93
2022-09-18T00:46:45.030Z,10.88
2022-09-18T00:49:14.158Z,10.87
2022-09-18T00:51:42.587Z,10.85
2022-09-18T00:54:38.705Z,10.86
2022-09-18T00:57:10.626Z,10.76
2022-09-18T00:59:38.426Z,10.68
2022-09-18T01:02:05.405Z,10.67
2022-09-18T01:04:32.635Z,10.73
2022-09-18T01:07:36.098Z,10.89
2022-09-18T01:10:30.113Z,10.90
2022-09-18T01:13:02.474Z,10.81
2022-09-18T01:15:39.968Z,10.88
2022-09-18T01:18:21.896Z,10.93
2022-09-18T01:21:00.606Z,10.86
2022-09-18T01:24:01.172Z,10.59
2022-09-18T01:26:49.105Z,10.99
2022-09-18T01:29:26.493Z,11.03
2022-09-18T01:32:02.140Z,10.97
2022-09-18T01:34:37.834Z,10.85
2022-09-18T01:37:21.651Z,10.75
2022-09-18T01:39:57.630Z,10.99
2022-09-18T01:42:27.178Z,10.99
2022-09-18T01:44:58.194Z,11.05
2022-09-18T01:47:31.879Z,10.92
2022-09-18T01:50:01.224Z,11.05
2022-09-18T01:52:38.332Z,11.11
2022-09-18T01:55:12.690Z,10.93
2022-09-18T01:57:50.213Z,10.98
2022-09-18T02:00:17.300Z,11.11
2022-09-18T02:03:02.117Z,10.91
2022-09-18T02:05:40.846Z,10.94
2022-09-18T02:08:33.951Z,11.10
2022-09-18T02:11:08.926Z,11.11
2022-09-18T02:14:01.852Z,11.00
2022-09-18T02:16:34.909Z,11.13
2022-09-18T02:19:05.839Z,11.20
2022-09-18T02:21:32.863Z,11.05
2022-09-18T02:24:05.110Z,11.08
2022-09-18T02:26:35.208Z,11.16
2022-09-18T02:29:03.339Z,11.18
2022-09-18T02:31:30.417Z,11.10
2022-09-18T02:33:57.287Z,11.13
2022-09-18T02:36:57.791Z,11.30
2022-09-18T02:39:58.971Z,11.23
2022-09-18T02:42:40.917Z,11.33
2022-09-18T02:45:07.931Z,11.21
2022-09-18T02:48:02.999Z,11.09
2022-09-18T02:50:49.852Z,11.16
2022-09-18T02:53:29.438Z,11.00
2022-09-18T02:56:06.990Z,11.20
2022-09-18T02:59:01.653Z,11.25
2022-09-18T03:01:29.285Z,11.16
2022-09-18T03:04:01.680Z,11.28
2022-09-18T03:06:28.321Z,11.37
2022-09-18T03:08:55.074Z,11.04
2022-09-18T03:11:21.679Z,11.33
2022-09-18T03:13:48.425Z,11.46
2022-09-18T03:16:15.378Z,11.53
2022-09-18T03:18:42.079Z,11.11
2022-09-18T03:21:08.760Z,11.28
2022-09-18T03:23:35.431Z,11.51
2022-09-18T03:26:02.069Z,11.50
2022-09-18T03:28:31.427Z,11.37
2022-09-18T03:30:58.267Z,11.20
2022-09-18T03:33:24.962Z,11.29
2022-09-18T03:35:51.639Z,11.51
2022-09-18T03:38:18.264Z,11.44
2022-09-18T03:40:47.803Z,11.44
2022-09-18T03:43:14.766Z,11.33
2022-09-18T03:45:41.378Z,11.45
2022-09-18T03:48:07.983Z,11.40
2022-09-18T03:50:34.677Z,11.42
2022-09-18T03:53:01.401Z,11.52
2022-09-18T03:55:28.127Z,11.55
2022-09-18T03:57:54.816Z,11.31
2022-09-18T04:00:21.524Z,11.43
2022-09-18T04:02:48.343Z,11.53
2022-09-18T04:05:15.567Z,11.37
2022-09-18T04:07:42.252Z,11.07
2022-09-18T04:10:09.290Z,10.99
2022-09-18T04:12:36.104Z,11.07
2022-09-18T04:15:02.836Z,10.93
2022-09-18T04:17:29.522Z,11.06
2022-09-18T04:19:56.300Z,10.95
2022-09-18T04:22:23.168Z,10.85
2022-09-18T04:24:50.620Z,10.95
2022-09-18T04:27:17.771Z,10.85
2022-09-18T04:29:44.612Z,10.83
2022-09-18T04:32:11.396Z,10.54
2022-09-18T04:34:38.059Z,10.75
2022-09-18T04:37:08.154Z,10.77
2022-09-18T04:39:36.870Z,10.79
2022-09-18T04:42:04.598Z,11.02
2022-09-18T04:44:31.346Z,10.93
2022-09-18T04:46:58.114Z,11.10
2022-09-18T04:49:24.910Z,10.89
2022-09-18T04:51:51.663Z,10.67
2022-09-18T04:54:18.304Z,10.75
2022-09-18T04:56:45.036Z,10.93
2022-09-18T04:59:11.685Z,10.81
2022-09-18T05:01:38.500Z,10.98
2022-09-18T05:04:05.198Z,10.62
2022-09-18T05:06:31.888Z,10.73
2022-09-18T05:08:58.762Z,10.90
2022-09-18T05:11:25.538Z,10.94
2022-09-18T05:13:56.720Z,10.75
2022-09-18T05:16:24.665Z,10.95
2022-09-18T05:18:52.482Z,10.95
2022-09-18T05:21:19.693Z,11.00
2022-09-18T05:23:47.135Z,11.05
2022-09-18T05:26:14.494Z,11.19
2022-09-18T05:28:41.541Z,11.03
2022-09-18T05:31:08.604Z,11.09
2022-09-18T05:33:36.551Z,11.06
2022-09-18T05:36:05.739Z,10.90
2022-09-18T05:38:32.522Z,11.06
2022-09-18T05:41:02.330Z,11.16
2022-09-18T05:43:30.159Z,11.03
2022-09-18T05:45:57.038Z,11.05
2022-09-18T05:48:24.293Z,11.30
2022-09-18T05:50:51.968Z,11.15
2022-09-18T05:53:20.765Z,10.88
2022-09-18T05:55:48.152Z,11.18
2022-09-18T05:58:17.936Z,11.01
2022-09-18T06:00:45.492Z,11.01
2022-09-18T06:03:16.594Z,10.70
2022-09-18T06:05:51.003Z,10.89
2022-09-18T06:08:17.767Z,10.76
2022-09-18T06:10:44.691Z,11.14
2022-09-18T06:13:15.808Z,11.20
2022-09-18T06:15:52.463Z,11.08
2022-09-18T06:18:19.405Z,11.31
2022-09-18T06:20:54.518Z,11.29
2022-09-18T06:23:25.996Z,11.04
2022-09-18T06:26:03.968Z,10.87
2022-09-18T06:28:32.514Z,11.11
2022-09-18T06:30:59.466Z,10.85
2022-09-18T06:33:26.634Z,11.00
2022-09-18T06:35:53.391Z,11.11
2022-09-18T06:38:20.130Z,11.20
2022-09-18T06:40:51.289Z,11.34
2022-09-18T06:43:19.171Z,11.49
2022-09-18T06:45:53.795Z,11.53
2022-09-18T06:48:20.719Z,11.17
2022-09-18T06:50:54.879Z,11.12
2022-09-18T06:53:22.852Z,11.31
2022-09-18T06:55:50.561Z,11.34
2022-09-18T06:58:18.792Z,11.54
2022-09-18T07:00:46.126Z,11.25
2022-09-18T07:03:13.127Z,11.24
2022-09-18T07:05:42.778Z,11.53
2022-09-18T07:08:10.389Z,11.61
2022-09-18T07:10:38.083Z,11.39
2022-09-18T07:13:05.567Z,11.34
2022-09-18T07:15:33.787Z,11.16
2022-09-18T07:18:02.876Z,11.14
2022-09-18T07:20:30.266Z,11.60
2022-09-18T07:23:02.220Z,11.33
2022-09-18T07:25:32.212Z,11.79
2022-09-18T07:28:08.150Z,11.50
2022-09-18T07:30:39.230Z,11.02
2022-09-18T07:33:07.787Z,11.29
2022-09-18T07:35:35.078Z,11.33
2022-09-18T07:38:03.949Z,10.70
2022-09-18T07:40:31.492Z,10.82
2022-09-18T07:43:03.758Z,10.92
2022-09-18T07:45:30.911Z,10.94
2022-09-18T07:47:57.773Z,11.09
2022-09-18T07:50:24.560Z,11.10
2022-09-18T07:53:05.615Z,10.85
2022-09-18T07:55:35.344Z,11.08
2022-09-18T07:58:04.902Z,11.09
2022-09-18T08:00:35.075Z,10.78
2022-09-18T08:03:41.350Z,10.54
2022-09-18T08:06:12.013Z,10.66
2022-09-18T08:08:41.763Z,11.08
2022-09-18T08:11:08.684Z,10.91
2022-09-18T08:13:38.593Z,10.81
2022-09-18T08:16:08.467Z,10.99
2022-09-18T08:18:36.466Z,11.18
2022-09-18T08:21:06.187Z,11.01
2022-09-18T08:23:38.800Z,11.00
2022-09-18T08:26:05.770Z,11.28
2022-09-18T08:28:35.814Z,10.75
2022-09-18T08:31:02.730Z,11.09
2022-09-18T08:33:32.893Z,10.76
2022-09-18T08:36:00.648Z,10.15
2022-09-18T08:38:27.648Z,10.22
2022-09-18T08:44:50.223Z,10.92
2022-09-18T08:47:24.922Z,10.64
2022-09-18T08:50:16.127Z,10.80
2022-09-18T08:52:51.642Z,10.93
2022-09-18T08:55:48.206Z,11.32
2022-09-18T08:58:27.209Z,11.27
2022-09-18T09:00:59.331Z,11.54
2022-09-18T09:03:48.106Z,11.56
2022-09-18T09:06:52.270Z,11.53
2022-09-18T09:09:46.711Z,11.57
2022-09-18T09:12:51.571Z,11.89
2022-09-18T09:15:35.331Z,11.91
2022-09-18T09:18:31.812Z,12.11
2022-09-18T09:21:16.861Z,11.67
2022-09-18T09:23:46.759Z,12.17
2022-09-18T09:26:17.680Z,12.06
2022-09-18T09:29:24.028Z,11.90
2022-09-18T09:31:57.423Z,12.15
2022-09-18T09:34:29.333Z,12.32
2022-09-18T09:37:02.889Z,12.19
2022-09-18T09:39:44.595Z,11.87
2022-09-18T09:42:33.574Z,11.99
2022-09-18T09:45:08.986Z,11.86
2022-09-18T09:47:52.454Z,12.41
2022-09-18T09:50:39.471Z,12.72
2022-09-18T09:53:12.656Z,12.69
2022-09-18T09:55:48.140Z,12.24
2022-09-18T09:58:52.135Z,12.58
2022-09-18T10:01:35.850Z,13.00
2022-09-18T10:04:32.548Z,13.27
2022-09-18T10:07:17.457Z,12.82
2022-09-18T10:09:58.910Z,12.61
2022-09-18T10:12:33.521Z,12.62
2022-09-18T10:15:39.714Z,12.83
2022-09-18T10:18:39.603Z,12.85
2022-09-18T10:21:13.035Z,13.17
2022-09-18T10:23:44.772Z,13.20
2022-09-18T10:26:29.665Z,12.84
2022-09-18T10:28:56.359Z,13.44
2022-09-18T10:31:24.167Z,13.55
2022-09-18T10:33:53.355Z,13.47
2022-09-18T10:36:20.717Z,13.50
2022-09-18T10:38:48.176Z,13.08
2022-09-18T10:41:33.503Z,13.47
2022-09-18T10:44:12.686Z,13.57
2022-09-18T10:46:50.613Z,13.38
2022-09-18T10:49:25.381Z,13.30
2022-09-18T10:52:20.102Z,13.45
2022-09-18T10:54:59.203Z,13.72
2022-09-18T10:57:35.457Z,13.50
2022-09-18T11:00:09.480Z,13.54
2022-09-18T11:02:44.610Z,13.91
2022-09-18T11:05:21.218Z,14.03
2022-09-18T11:07:50.285Z,13.42
2022-09-18T11:10:27.740Z,13.73
2022-09-18T11:12:57.912Z,13.39
2022-09-18T11:15:28.540Z,13.59
2022-09-18T11:17:57.563Z,13.74
2022-09-18T11:20:31.056Z,13.75
2022-09-18T11:23:20.844Z,13.88
2022-09-18T11:49:50.293Z,13.29
2022-09-18T11:52:26.576Z,13.38
2022-09-18T11:55:03.323Z,12.91
2022-09-18T11:57:43.985Z,13.47
2022-09-18T12:00:11.271Z,13.73
2022-09-18T12:02:41.064Z,14.10
2022-09-18T12:05:42.052Z,14.43
2022-09-18T12:08:35.324Z,14.36
2022-09-18T12:11:26.730Z,14.36
2022-09-18T12:14:35.372Z,14.18
2022-09-18T12:17:08.054Z,13.88
2022-09-18T12:19:50.352Z,13.88
2022-09-18T12:22:39.704Z,13.65
2022-09-18T12:25:17.722Z,13.63
2022-09-18T12:27:49.257Z,13.34
2022-09-18T12:30:21.958Z,13.08
2022-09-18T12:33:03.723Z,13.56
2022-09-18T12:35:32.914Z,13.44
2022-09-18T12:38:30.384Z,13.71
2022-09-18T12:41:03.545Z,13.73
2022-09-18T12:44:09.458Z,13.52
2022-09-18T12:46:42.521Z,13.67
2022-09-18T12:49:47.155Z,13.97
2022-09-18T12:52:43.409Z,13.68
2022-09-18T12:55:30.812Z,13.58
2022-09-18T12:58:00.658Z,13.99
2022-09-18T13:00:28.272Z,14.35
2022-09-18T13:03:06.754Z,14.49
2022-09-18T13:05:49.992Z,14.03
2022-09-18T13:08:44.362Z,14.49
2022-09-18T13:11:32.102Z,13.94
2022-09-18T13:14:21.039Z,14.27
2022-09-18T13:16:56.341Z,13.90
2022-09-18T13:19:29.917Z,14.21
2022-09-18T13:21:58.959Z,14.23
2022-09-18T13:24:39.161Z,14.21
2022-09-18T13:27:12.672Z,14.09
2022-09-18T13:29:52.141Z,14.08
2022-09-18T13:38:27.725Z,13.52
2022-09-18T13:43:57.931Z,13.65
2022-09-18T13:49:35.953Z,13.55
2022-09-18T13:52:31.278Z,14.04
2022-09-18T13:55:22.971Z,13.85
2022-09-18T13:58:28.461Z,14.05
2022-09-18T14:00:56.310Z,13.44
2022-09-18T14:03:27.875Z,14.23
2022-09-18T14:08:37.879Z,13.76
2022-09-18T14:11:17.286Z,14.23
2022-09-18T14:13:54.712Z,13.79
2022-09-18T14:16:22.506Z,14.26
2022-09-18T14:18:49.162Z,14.42
2022-09-18T14:21:18.892Z,14.36
2022-09-18T14:23:48.676Z,14.28
2022-09-18T14:26:35.182Z,14.71
2022-09-18T14:29:17.303Z,14.38
2022-09-18T14:31:51.959Z,14.54
2022-09-18T14:34:40.574Z,14.66
2022-09-18T14:37:24.759Z,14.51
2022-09-18T14:39:55.070Z,14.66
2022-09-18T14:42:31.919Z,14.86
2022-09-18T14:45:12.303Z,14.88
2022-09-18T14:47:48.858Z,14.63
2022-09-18T14:50:27.793Z,14.29
2022-09-18T14:52:56.268Z,14.42
2022-09-18T14:55:28.512Z,14.83
2022-09-18T14:58:14.268Z,14.69
2022-09-18T15:00:41.622Z,14.85
2022-09-18T15:03:18.294Z,14.27
2022-09-18T15:05:52.804Z,14.41
2022-09-18T15:08:26.806Z,14.49
2022-09-18T15:10:57.697Z,14.17
2022-09-18T15:13:25.717Z,14.45
2022-09-18T15:16:18.070Z,14.65
2022-09-18T15:18:44.861Z,14.24
2022-09-18T15:21:32.879Z,14.61
2022-09-18T15:24:05.351Z,14.38
2022-09-18T15:26:43.700Z,14.60
2022-09-18T15:29:23.861Z,14.47
2022-09-18T15:31:51.711Z,14.49
2022-09-18T15:34:27.347Z,14.27
2022-09-18T15:36:57.490Z,14.98
2022-09-18T15:39:38.046Z,14.70
2022-09-18T15:42:16.957Z,14.66
2022-09-18T15:44:56.031Z,14.70
2022-09-18T15:47:25.758Z,14.84
2022-09-18T15:49:52.991Z,14.76
2022-09-18T15:52:35.712Z,14.41
2022-09-18T15:55:23.486Z,14.67
2022-09-18T15:58:00.282Z,14.86
2022-09-18T16:00:31.383Z,15.26
2022-09-18T16:03:05.387Z,14.82
2022-09-18T16:05:37.352Z,15.22
2022-09-18T16:08:08.642Z,14.74
2022-09-18T16:10:35.245Z,14.82
2022-09-18T16:13:04.004Z,14.44
2022-09-18T16:15:31.350Z,14.42
2022-09-18T16:18:21.288Z,14.45
2022-09-18T16:20:57.994Z,14.80
2022-09-18T16:23:37.867Z,14.60
2022-09-18T16:26:21.619Z,14.21
2022-09-18T16:28:56.721Z,13.99
2022-09-18T16:31:26.295Z,14.25
2022-09-18T16:33:57.472Z,14.07
2022-09-18T16:36:38.403Z,14.04
2022-09-18T16:39:08.280Z,13.74
2022-09-18T16:41:35.679Z,14.18
2022-09-18T16:44:04.331Z,13.83
2022-09-18T16:46:37.780Z,14.15
2022-09-18T16:49:04.638Z,13.98
2022-09-18T16:51:31.486Z,14.24
2022-09-18T16:53:58.789Z,13.91
2022-09-18T16:56:49.699Z,14.45
2022-09-18T16:59:16.459Z,14.36
2022-09-18T17:02:02.831Z,14.09
2022-09-18T17:04:33.267Z,14.04
2022-09-18T17:07:00.989Z,13.74
2022-09-18T17:09:27.951Z,13.56
2022-09-18T17:11:55.143Z,13.59
2022-09-18T17:14:25.701Z,13.84
2022-09-18T17:16:52.735Z,14.08
2022-09-18T17:19:20.378Z,14.05
2022-09-18T17:21:47.474Z,13.73
2022-09-18T17:24:17.438Z,13.51
2022-09-18T17:26:50.416Z,13.06
2022-09-18T17:29:17.270Z,13.20
2022-09-18T17:31:47.245Z,13.23
2022-09-18T17:34:16.626Z,13.40
2022-09-18T17:36:43.768Z,12.91
2022-09-18T17:39:11.004Z,13.02
2022-09-18T17:41:39.035Z,13.13
2022-09-18T17:44:09.395Z,13.35
2022-09-18T17:46:36.133Z,13.35
2022-09-18T17:49:03.512Z,13.04
2022-09-18T17:51:30.222Z,12.85
2022-09-18T17:54:17.288Z,13.10
2022-09-18T17:56:47.093Z,13.14
2022-09-18T17:59:14.372Z,12.77
2022-09-18T18:01:46.265Z,12.96
2022-09-18T18:04:16.629Z,12.33
2022-09-18T18:06:43.488Z,12.80
2022-09-18T18:09:10.433Z,12.90
2022-09-18T18:11:37.930Z,12.94
2022-09-18T18:14:05.817Z,12.63
2022-09-18T18:16:34.502Z,12.84
2022-09-18T18:19:04.185Z,12.73
2022-09-18T18:21:32.933Z,12.59
2022-09-18T18:24:04.861Z,12.83
2022-09-18T18:26:31.844Z,12.58
2022-09-18T18:28:58.803Z,12.71
2022-09-18T18:31:26.291Z,12.46
2022-09-18T18:33:55.209Z,12.27
2022-09-18T18:36:28.270Z,12.56
2022-09-18T18:38:57.574Z,12.26
2022-09-18T18:41:26.744Z,11.89
2022-09-18T18:43:56.074Z,12.05
2022-09-18T18:46:25.674Z,11.90
2022-09-18T18:49:02.051Z,12.08
2022-09-18T18:51:36.165Z,11.86
2022-09-18T18:54:04.625Z,12.01
2022-09-18T18:56:34.505Z,11.88
2022-09-18T18:59:03.349Z,12.08
2022-09-18T19:01:31.394Z,11.98
2022-09-18T19:04:00.617Z,11.67
2022-09-18T19:06:28.135Z,11.67
2022-09-18T19:08:59.907Z,11.61
2022-09-18T19:11:27.162Z,11.74
2022-09-18T19:13:56.309Z,11.53
2022-09-18T19:16:25.439Z,11.51
2022-09-18T19:18:58.722Z,11.47
2022-09-18T19:21:26.013Z,11.64
2022-09-18T19:23:58.377Z,11.26
2022-09-18T19:26:26.909Z,11.48
2022-09-18T19:29:07.029Z,11.50
2022-09-18T19:31:38.811Z,11.42
2022-09-18T19:34:09.758Z,11.16
2022-09-18T19:36:36.595Z,11.09
2022-09-18T19:39:05.728Z,11.25
2022-09-18T19:41:49.134Z,11.32
2022-09-18T19:44:47.059Z,11.32
2022-09-18T19:47:22.749Z,11.29
2022-09-18T19:49:51.663Z,11.02
2022-09-18T19:52:37.784Z,11.22
2022-09-18T19:55:04.755Z,11.10
2022-09-18T19:57:31.378Z,10.97
2022-09-18T19:59:59.513Z,10.84
2022-09-18T20:02:27.286Z,10.95
2022-09-18T20:04:54.024Z,10.89
2022-09-18T20:07:20.754Z,10.92
2022-09-18T20:09:47.354Z,10.81
2022-09-18T20:12:14.186Z,10.79
2022-09-18T20:14:40.976Z,10.58
2022-09-18T20:17:08.420Z,10.69
2022-09-18T20:19:35.486Z,10.69
2022-09-18T20:22:03.076Z,10.63
2022-09-18T20:24:33.192Z,10.80
2022-09-18T20:27:00.817Z,10.77
2022-09-18T20:29:28.223Z,10.63
2022-09-18T20:31:55.269Z,10.71
2022-09-18T20:34:24.815Z,10.63
2022-09-18T20:36:52.569Z,10.72
2022-09-18T20:39:19.719Z,10.60
2022-09-18T20:41:46.584Z,10.60
2022-09-18T20:44:13.613Z,10.52
2022-09-18T20:46:43.071Z,10.59
2022-09-18T20:49:11.728Z,10.21
2022-09-18T20:51:38.452Z,10.38
2022-09-18T20:54:09.458Z,10.47
2022-09-18T20:56:42.117Z,10.21
2022-09-18T20:59:13.790Z,10.38
2022-09-18T21:01:42.127Z,10.38
2022-09-18T21:04:17.584Z,10.46
2022-09-18T21:06:46.877Z,10.38
2022-09-18T21:09:14.475Z,10.33
2022-09-18T21:11:43.757Z,10.27
2022-09-18T21:14:13.160Z,10.33
2022-09-18T21:16:42.843Z,10.32
2022-09-18T21:19:12.241Z,10.26
2022-09-18T21:21:39.876Z,10.27
2022-09-18T21:24:08.886Z,10.29
2022-09-18T21:26:41.540Z,10.27
2022-09-18T21:29:17.431Z,10.23
2022-09-18T21:31:46.033Z,10.14
2022-09-18T21:34:14.139Z,10.03
2022-09-18T21:36:44.145Z,10.15
2022-09-18T21:39:13.023Z,10.10
2022-09-18T21:41:40.213Z,10.25
2022-09-18T21:44:11.940Z,10.00
2022-09-18T21:46:39.349Z,10.18
2022-09-18T21:49:07.738Z,10.17
2022-09-18T21:51:35.825Z,10.18
2022-09-18T21:54:05.520Z,10.21
2022-09-18T21:56:33.438Z,10.27
2022-09-18T21:59:00.482Z,10.27
2022-09-18T22:01:31.208Z,10.13
2022-09-18T22:04:01.207Z,10.12
2022-09-18T22:06:48.623Z,10.19
2022-09-18T22:09:25.361Z,10.10
2022-09-18T22:11:52.754Z,10.17
2022-09-18T22:14:23.056Z,10.06
2022-09-18T22:16:50.645Z,9.92
2022-09-18T22:19:17.851Z,9.73
2022-09-18T22:21:47.118Z,9.53
2022-09-18T22:24:19.627Z,9.38
2022-09-18T22:26:51.947Z,9.58
2022-09-18T22:29:21.016Z,9.63
2022-09-18T22:31:48.296Z,9.72
2022-09-18T22:34:17.512Z,9.85
2022-09-18T22:36:45.578Z,9.98
2022-09-18T22:39:13.633Z,9.79
2022-09-18T22:41:40.482Z,9.83
2022-09-18T22:44:07.579Z,9.68
2022-09-18T22:46:37.273Z,9.63
2022-09-18T22:49:05.036Z,9.49
2022-09-18T22:51:31.855Z,9.56
2022-09-18T22:54:02.795Z,9.30
2022-09-18T22:56:30.015Z,9.39
2022-09-18T22:58:58.393Z,9.17
2022-09-18T23:01:39.352Z,9.04
2022-09-18T23:04:06.144Z,9.12
2022-09-18T23:06:33.885Z,9.09
2022-09-18T23:09:01.595Z,9.25
2022-09-18T23:11:31.504Z,9.47
2022-09-18T23:14:01.980Z,9.72
2022-09-18T23:16:30.412Z,9.67
2022-09-18T23:19:03.899Z,9.66
2022-09-18T23:21:32.619Z,9.80
2022-09-18T23:24:08.591Z,9.82
2022-09-18T23:26:38.243Z,9.78
2022-09-18T23:29:07.514Z,9.73
2022-09-18T23:31:37.893Z,9.79
2022-09-18T23:34:07.707Z,9.76
2022-09-18T23:36:37.050Z,9.68
2022-09-18T23:39:07.439Z,9.77
2022-09-18T23:41:34.737Z,9.63
2022-09-18T23:44:02.775Z,9.48
2022-09-18T23:46:29.914Z,9.72
2022-09-18T23:48:57.205Z,9.74
2022-09-18T23:51:36.263Z,9.88
2022-09-18T23:54:04.986Z,9.88
2022-09-18T23:56:33.742Z,9.72
2022-09-18T23:59:03.933Z,9.60
